Time;durP1;ratioP1;P1;durP2;ratioP2;P2;SDS_P1;SDS_P2;PMS_P1;PMS_P2;Temp;Humidity;BMP_temperature;BMP_pressure;BME280_temperature;BME280_humidity;BME280_pressure;Samples;Min_cycle;Max_cycle;Signal;HPM_P1;HPM_P2
2023/04/22 00:01:01;;;;;;;6.70;6.10;;;;;;;;;;5094339;28;20557;-59
2023/04/22 00:03:28;;;;;;;7.10;6.40;;;;;;;;;;5094269;28;20444;-59
2023/04/22 00:05:54;;;;;;;7.10;6.10;;;;;;;;;;5094239;28;20454;-59
2023/04/22 00:08:21;;;;;;;7.80;7.00;;;;;;;;;;5094168;28;20447;-59
2023/04/22 00:10:50;;;;;;;6.93;6.27;;;;;;;;;;5093918;28;20483;-59
2023/04/22 00:13:17;;;;;;;6.63;6.03;;;;;;;;;;5093839;28;20960;-59
2023/04/22 00:15:43;;;;;;;7.50;6.70;;;;;;;;;;5093946;28;20447;-60
2023/04/22 00:18:12;;;;;;;6.70;6.20;;;;;;;;;;5094190;28;20458;-59
2023/04/22 00:20:40;;;;;;;7.20;6.50;;;;;;;;;;5094058;28;20505;-60
2023/04/22 00:23:06;;;;;;;8.17;6.57;;;;;;;;;;5093842;28;20534;-59
2023/04/22 00:25:34;;;;;;;8.37;6.90;;;;;;;;;;5093681;28;20465;-59
2023/04/22 00:28:02;;;;;;;7.23;6.63;;;;;;;;;;5093878;28;20534;-59
2023/04/22 00:30:29;;;;;;;9.17;6.00;;;;;;;;;;5093557;28;20518;-59
2023/04/22 00:32:56;;;;;;;6.57;6.03;;;;;;;;;;5093696;28;20447;-59
2023/04/22 00:35:23;;;;;;;9.43;6.73;;;;;;;;;;5093558;28;20823;-59
2023/04/22 00:37:50;;;;;;;6.63;5.97;;;;;;;;;;5093452;28;20457;-59
2023/04/22 00:40:17;;;;;;;6.90;6.20;;;;;;;;;;5093254;28;20901;-59
2023/04/22 00:42:44;;;;;;;7.60;6.40;;;;;;;;;;5093638;28;20881;-59
2023/04/22 00:45:16;;;;;;;7.77;7.03;;;;;;;;;;5093559;28;20529;-59
2023/04/22 00:47:44;;;;;;;8.93;6.80;;;;;;;;;;5093246;28;20473;-59
2023/04/22 00:50:12;;;;;;;6.73;6.13;;;;;;;;;;5093179;28;20566;-59
2023/04/22 00:52:38;;;;;;;7.13;6.43;;;;;;;;;;5093176;28;20451;-59
2023/04/22 00:55:06;;;;;;;8.10;7.27;;;;;;;;;;5092980;28;20813;-59
2023/04/22 00:57:33;;;;;;;7.37;6.60;;;;;;;;;;5093087;28;20541;-59
2023/04/22 01:00:00;;;;;;;7.40;6.20;;;;;;;;;;5092880;28;20976;-59
2023/04/22 01:02:28;;;;;;;7.20;6.30;;;;;;;;;;5092853;28;20829;-59
2023/04/22 01:04:55;;;;;;;6.80;6.20;;;;;;;;;;5092994;28;20446;-59
2023/04/22 01:07:22;;;;;;;9.80;6.97;;;;;;;;;;5092944;28;20457;-59
2023/04/22 01:09:50;;;;;;;7.37;5.87;;;;;;;;;;5093016;28;20565;-59
2023/04/22 01:12:17;;;;;;;7.53;6.83;;;;;;;;;;5092801;28;20457;-59
2023/04/22 01:14:44;;;;;;;9.27;7.00;;;;;;;;;;5092816;28;20454;-59
2023/04/22 01:17:12;;;;;;;8.10;7.40;;;;;;;;;;5092746;28;20453;-59
2023/04/22 01:19:42;;;;;;;8.70;7.80;;;;;;;;;;5092634;28;20504;-60
2023/04/22 01:22:11;;;;;;;7.40;6.70;;;;;;;;;;5092401;28;20780;-60
2023/04/22 01:24:39;;;;;;;8.97;7.57;;;;;;;;;;5092856;28;20541;-60
2023/04/22 01:27:06;;;;;;;7.83;7.03;;;;;;;;;;5092687;28;20481;-59
2023/04/22 01:29:33;;;;;;;7.23;6.53;;;;;;;;;;5092457;28;20470;-59
2023/04/22 01:32:00;;;;;;;8.90;7.47;;;;;;;;;;5092503;28;20452;-59
2023/04/22 01:34:27;;;;;;;7.90;7.10;;;;;;;;;;5092450;28;20447;-60
2023/04/22 01:36:55;;;;;;;8.10;7.30;;;;;;;;;;5092588;28;20532;-60
2023/04/22 01:39:22;;;;;;;11.00;7.70;;;;;;;;;;5092410;28;20451;-60
2023/04/22 01:41:50;;;;;;;9.30;6.90;;;;;;;;;;5092620;28;20533;-59
2023/04/22 01:44:18;;;;;;;8.40;7.03;;;;;;;;;;5092320;28;20938;-59
2023/04/22 01:46:45;;;;;;;9.90;7.47;;;;;;;;;;5092194;28;20442;-60
2023/04/22 01:49:12;;;;;;;8.80;6.87;;;;;;;;;;5092534;28;20530;-59
2023/04/22 01:51:39;;;;;;;7.03;6.53;;;;;;;;;;5092497;28;20446;-59
2023/04/22 01:54:06;;;;;;;7.30;6.67;;;;;;;;;;5092189;28;20832;-59
2023/04/22 01:56:33;;;;;;;10.00;8.20;;;;;;;;;;5092545;28;20900;-59
2023/04/22 01:59:02;;;;;;;7.80;6.90;;;;;;;;;;5092402;28;20458;-59
2023/04/22 02:01:28;;;;;;;9.50;7.33;;;;;;;;;;5092178;28;20454;-59
2023/04/22 02:03:55;;;;;;;8.63;7.77;;;;;;;;;;5092308;28;20950;-60
2023/04/22 02:06:22;;;;;;;10.00;7.50;;;;;;;;;;5092425;28;20525;-60
2023/04/22 02:08:49;;;;;;;7.80;7.20;;;;;;;;;;5092375;28;20454;-60
2023/04/22 02:11:16;;;;;;;10.90;7.20;;;;;;;;;;5092137;28;20479;-60
2023/04/22 02:13:43;;;;;;;8.33;7.23;;;;;;;;;;5092518;28;20450;-60
2023/04/22 02:16:11;;;;;;;8.63;7.43;;;;;;;;;;5096121;28;21033;-60
2023/04/22 02:18:38;;;;;;;8.77;7.60;;;;;;;;;;5096329;28;20542;-60
2023/04/22 02:21:05;;;;;;;8.33;7.53;;;;;;;;;;5096157;28;20538;-60
2023/04/22 02:23:32;;;;;;;10.17;7.70;;;;;;;;;;5096131;28;20447;-59
2023/04/22 02:25:59;;;;;;;8.37;7.37;;;;;;;;;;5096048;28;20473;-60
2023/04/22 02:28:26;;;;;;;8.13;7.33;;;;;;;;;;5095645;28;20460;-60
2023/04/22 02:30:53;;;;;;;7.90;7.20;;;;;;;;;;5096011;28;20492;-60
2023/04/22 02:33:22;;;;;;;7.67;7.00;;;;;;;;;;5095832;28;20537;-60
2023/04/22 02:35:49;;;;;;;11.10;7.53;;;;;;;;;;5095987;28;20457;-60
2023/04/22 02:38:15;;;;;;;8.83;7.77;;;;;;;;;;5095635;28;20454;-60
2023/04/22 02:40:42;;;;;;;10.30;6.77;;;;;;;;;;5095533;28;20454;-60
2023/04/22 02:43:09;;;;;;;9.03;7.20;;;;;;;;;;5095547;28;20447;-60
2023/04/22 02:45:36;;;;;;;7.60;6.90;;;;;;;;;;5095809;28;20728;-59
2023/04/22 02:48:03;;;;;;;13.63;7.53;;;;;;;;;;5095558;28;20526;-59
2023/04/22 02:50:31;;;;;;;9.17;7.47;;;;;;;;;;5095399;28;20577;-59
2023/04/22 02:52:58;;;;;;;8.80;7.47;;;;;;;;;;5095274;28;20453;-60
2023/04/22 02:55:25;;;;;;;7.73;7.00;;;;;;;;;;5095499;28;20751;-59
2023/04/22 02:57:52;;;;;;;7.80;7.07;;;;;;;;;;5095651;28;20442;-59
2023/04/22 03:00:19;;;;;;;8.03;6.70;;;;;;;;;;5095571;28;20481;-59
2023/04/22 03:02:46;;;;;;;11.00;6.93;;;;;;;;;;5095489;28;20530;-59
2023/04/22 03:05:14;;;;;;;7.33;6.63;;;;;;;;;;5095350;28;20447;-59
2023/04/22 03:07:43;;;;;;;6.90;6.30;;;;;;;;;;5095445;28;20802;-59
2023/04/22 03:10:10;;;;;;;8.37;7.20;;;;;;;;;;5095083;28;20507;-59
2023/04/22 03:12:37;;;;;;;10.07;8.10;;;;;;;;;;5095446;28;20774;-59
2023/04/22 03:15:04;;;;;;;8.20;7.37;;;;;;;;;;5095282;28;20557;-60
2023/04/22 03:17:31;;;;;;;9.37;7.27;;;;;;;;;;5095239;28;20451;-59
2023/04/22 03:19:58;;;;;;;8.17;6.90;;;;;;;;;;5095066;28;20759;-59
2023/04/22 03:22:25;;;;;;;9.40;7.37;;;;;;;;;;5094998;28;20461;-60
2023/04/22 03:24:54;;;;;;;8.93;7.03;;;;;;;;;;5094817;28;20543;-59
2023/04/22 03:27:21;;;;;;;10.53;8.33;;;;;;;;;;5095019;28;20859;-60
2023/04/22 03:29:48;;;;;;;9.60;7.50;;;;;;;;;;5094885;28;20856;-59
2023/04/22 03:32:15;;;;;;;8.10;7.30;;;;;;;;;;5094888;28;20447;-59
2023/04/22 03:34:42;;;;;;;7.80;7.03;;;;;;;;;;5094787;28;20453;-59
2023/04/22 03:37:09;;;;;;;11.03;8.70;;;;;;;;;;5094575;28;20451;-59
2023/04/22 03:39:36;;;;;;;9.10;7.40;;;;;;;;;;5094502;28;21037;-60
2023/04/22 03:42:05;;;;;;;8.10;6.50;;;;;;;;;;5094730;28;20447;-60
2023/04/22 03:44:32;;;;;;;9.00;7.73;;;;;;;;;;5094487;28;21017;-60
2023/04/22 03:46:59;;;;;;;10.67;7.17;;;;;;;;;;5094486;28;20447;-59
2023/04/22 03:49:26;;;;;;;8.97;7.60;;;;;;;;;;5094399;28;20470;-60
2023/04/22 03:51:52;;;;;;;9.00;8.10;;;;;;;;;;5094154;28;20486;-60
2023/04/22 03:54:19;;;;;;;9.20;7.23;;;;;;;;;;5094036;28;21041;-59
2023/04/22 03:56:46;;;;;;;10.87;7.77;;;;;;;;;;5094393;28;20451;-60
2023/04/22 03:59:15;;;;;;;8.20;7.37;;;;;;;;;;5094336;28;20537;-60
2023/04/22 04:01:42;;;;;;;10.27;7.67;;;;;;;;;;5094196;28;20455;-59
2023/04/22 04:04:09;;;;;;;7.70;7.00;;;;;;;;;;5094169;28;20457;-60
2023/04/22 04:06:36;;;;;;;7.93;7.17;;;;;;;;;;5094094;28;20533;-60
2023/04/22 04:09:02;;;;;;;9.10;7.10;;;;;;;;;;5094423;28;20520;-59
2023/04/22 04:11:29;;;;;;;10.13;7.67;;;;;;;;;;5094030;28;20479;-59
2023/04/22 04:13:56;;;;;;;10.10;7.60;;;;;;;;;;5094086;28;20483;-60
2023/04/22 04:16:25;;;;;;;10.37;7.50;;;;;;;;;;5093977;28;20454;-59
2023/04/22 04:18:52;;;;;;;11.90;7.67;;;;;;;;;;5093852;28;20449;-59
2023/04/22 04:21:19;;;;;;;9.80;7.33;;;;;;;;;;5094035;28;20534;-59
2023/04/22 04:23:46;;;;;;;8.67;7.77;;;;;;;;;;5093920;28;20449;-59
2023/04/22 04:26:13;;;;;;;9.27;8.37;;;;;;;;;;5093965;28;20453;-59
2023/04/22 04:28:41;;;;;;;8.60;7.30;;;;;;;;;;5093747;28;20447;-59
2023/04/22 04:31:08;;;;;;;10.90;8.03;;;;;;;;;;5093677;28;20475;-59
2023/04/22 04:33:36;;;;;;;8.30;7.43;;;;;;;;;;5093606;28;20910;-59
2023/04/22 04:36:03;;;;;;;8.07;7.27;;;;;;;;;;5093889;28;20457;-59
2023/04/22 04:38:31;;;;;;;11.53;7.73;;;;;;;;;;5093197;28;20538;-60
2023/04/22 04:40:58;;;;;;;10.73;8.50;;;;;;;;;;5093592;28;20508;-59
2023/04/22 04:43:25;;;;;;;7.40;6.70;;;;;;;;;;5093504;28;20946;-59
2023/04/22 04:45:52;;;;;;;7.70;6.90;;;;;;;;;;5093356;28;20466;-60
2023/04/22 04:48:19;;;;;;;8.70;7.83;;;;;;;;;;5093608;28;20533;-59
2023/04/22 04:50:49;;;;;;;9.53;7.93;;;;;;;;;;5093430;28;20503;-59
2023/04/22 04:53:16;;;;;;;7.87;7.07;;;;;;;;;;5093139;28;20451;-60
2023/04/22 04:55:43;;;;;;;9.80;8.17;;;;;;;;;;5093367;28;20538;-60
2023/04/22 04:58:10;;;;;;;9.80;7.50;;;;;;;;;;5093220;28;20534;-60
2023/04/22 05:00:36;;;;;;;8.90;8.00;;;;;;;;;;5093143;28;20455;-60
2023/04/22 05:03:03;;;;;;;8.57;7.77;;;;;;;;;;5093192;28;20533;-60
2023/04/22 05:05:31;;;;;;;9.23;8.20;;;;;;;;;;5093276;28;20630;-59
2023/04/22 05:07:59;;;;;;;9.27;7.57;;;;;;;;;;5093103;28;20447;-59
2023/04/22 05:10:26;;;;;;;7.93;7.23;;;;;;;;;;5092848;28;20502;-59
2023/04/22 05:12:53;;;;;;;10.73;7.60;;;;;;;;;;5092928;28;20895;-59
2023/04/22 05:15:20;;;;;;;8.87;7.97;;;;;;;;;;5092791;28;20447;-59
2023/04/22 05:17:47;;;;;;;8.20;7.40;;;;;;;;;;5093285;28;20861;-59
2023/04/22 05:20:14;;;;;;;7.97;7.13;;;;;;;;;;5092866;28;20447;-60
2023/04/22 05:22:42;;;;;;;10.17;8.33;;;;;;;;;;5092852;28;20537;-59
2023/04/22 05:25:11;;;;;;;9.17;8.27;;;;;;;;;;5092725;28;20526;-60
2023/04/22 05:27:38;;;;;;;8.37;7.20;;;;;;;;;;5092639;28;20478;-60
2023/04/22 05:30:05;;;;;;;10.27;7.70;;;;;;;;;;5092940;28;20454;-59
2023/04/22 05:32:32;;;;;;;11.63;9.43;;;;;;;;;;5092706;28;20479;-59
2023/04/22 05:34:59;;;;;;;10.53;7.57;;;;;;;;;;5092688;28;20485;-59
2023/04/22 05:37:26;;;;;;;8.63;7.63;;;;;;;;;;5092676;28;20833;-59
2023/04/22 05:39:53;;;;;;;9.70;7.53;;;;;;;;;;5092630;28;20888;-59
2023/04/22 05:42:21;;;;;;;8.03;6.87;;;;;;;;;;5092562;28;20549;-59
2023/04/22 05:44:48;;;;;;;11.60;7.90;;;;;;;;;;5092760;28;20457;-60
2023/04/22 05:47:15;;;;;;;11.40;7.70;;;;;;;;;;5092719;28;20534;-59
2023/04/22 05:49:42;;;;;;;10.17;7.73;;;;;;;;;;5094712;28;20854;-60
2023/04/22 05:52:09;;;;;;;11.97;8.27;;;;;;;;;;5096591;28;20488;-59
2023/04/22 05:54:36;;;;;;;9.10;7.73;;;;;;;;;;5096489;28;20567;-60
2023/04/22 05:57:03;;;;;;;8.60;7.77;;;;;;;;;;5096646;28;20479;-60
2023/04/22 05:59:31;;;;;;;9.10;7.67;;;;;;;;;;5096729;28;20451;-60
2023/04/22 06:01:58;;;;;;;10.43;8.53;;;;;;;;;;5096834;28;20537;-60
2023/04/22 06:04:25;;;;;;;8.80;8.00;;;;;;;;;;5096712;28;20450;-60
2023/04/22 06:06:53;;;;;;;10.80;7.50;;;;;;;;;;5096533;28;20446;-60
2023/04/22 06:09:20;;;;;;;8.67;7.87;;;;;;;;;;5096322;28;20533;-59
2023/04/22 06:11:47;;;;;;;8.27;7.40;;;;;;;;;;5096461;28;20490;-59
2023/04/22 06:14:14;;;;;;;12.53;8.57;;;;;;;;;;5096414;28;20784;-59
2023/04/22 06:16:42;;;;;;;13.37;8.57;;;;;;;;;;5096252;28;20455;-59
2023/04/22 06:19:09;;;;;;;8.67;7.53;;;;;;;;;;5096262;28;20878;-60
2023/04/22 06:21:39;;;;;;;9.90;7.73;;;;;;;;;;5096172;28;20500;-59
2023/04/22 06:24:06;;;;;;;8.57;7.77;;;;;;;;;;5096085;28;20499;-59
2023/04/22 06:26:33;;;;;;;8.17;7.07;;;;;;;;;;5096201;28;20832;-60
2023/04/22 06:29:01;;;;;;;8.23;7.40;;;;;;;;;;5096302;28;20533;-60
2023/04/22 06:31:28;;;;;;;11.17;7.57;;;;;;;;;;5095956;28;20527;-60
2023/04/22 06:33:56;;;;;;;11.83;8.17;;;;;;;;;;5095940;28;20449;-59
2023/04/22 06:36:23;;;;;;;9.00;7.63;;;;;;;;;;5095781;28;20458;-60
2023/04/22 06:38:50;;;;;;;8.60;7.67;;;;;;;;;;5095911;28;20443;-59
2023/04/22 06:41:18;;;;;;;10.47;9.20;;;;;;;;;;5096028;28;20803;-60
2023/04/22 06:43:45;;;;;;;10.03;7.93;;;;;;;;;;5095859;28;20449;-60
2023/04/22 06:46:12;;;;;;;9.73;7.40;;;;;;;;;;5095731;28;20530;-60
2023/04/22 06:48:39;;;;;;;8.53;7.33;;;;;;;;;;5095773;28;20443;-60
2023/04/22 06:51:08;;;;;;;10.13;7.80;;;;;;;;;;5095542;28;20487;-60
2023/04/22 06:53:35;;;;;;;8.43;7.43;;;;;;;;;;5095206;28;21080;-60
2023/04/22 06:56:02;;;;;;;9.73;8.00;;;;;;;;;;5095619;28;20458;-60
2023/04/22 06:58:29;;;;;;;11.20;8.80;;;;;;;;;;5095631;28;20550;-60
2023/04/22 07:00:55;;;;;;;8.87;7.97;;;;;;;;;;5094814;28;20451;-60
2023/04/22 07:03:22;;;;;;;8.33;7.53;;;;;;;;;;5095245;28;20446;-60
2023/04/22 07:05:49;;;;;;;7.93;7.10;;;;;;;;;;5095294;28;20446;-60
2023/04/22 07:08:18;;;;;;;7.80;7.00;;;;;;;;;;5095457;28;20546;-60
2023/04/22 07:10:45;;;;;;;8.70;7.70;;;;;;;;;;5095312;28;20451;-60
2023/04/22 07:13:12;;;;;;;10.23;8.27;;;;;;;;;;5095202;28;20450;-60
2023/04/22 07:15:39;;;;;;;8.37;7.53;;;;;;;;;;5095220;28;20447;-60
2023/04/22 07:18:06;;;;;;;8.27;7.20;;;;;;;;;;5095000;28;20462;-59
2023/04/22 07:20:33;;;;;;;7.53;6.80;;;;;;;;;;5095293;28;20535;-60
2023/04/22 07:23:00;;;;;;;8.67;7.40;;;;;;;;;;5095035;28;20444;-60
2023/04/22 07:25:28;;;;;;;9.53;7.97;;;;;;;;;;5094992;28;20550;-62
2023/04/22 07:27:55;;;;;;;8.00;7.00;;;;;;;;;;5094990;28;20649;-60
2023/04/22 07:30:22;;;;;;;9.10;7.53;;;;;;;;;;5094882;28;20451;-60
2023/04/22 07:32:49;;;;;;;9.23;8.00;;;;;;;;;;5094805;28;20511;-60
2023/04/22 07:35:17;;;;;;;7.10;6.40;;;;;;;;;;5094886;28;20807;-60
2023/04/22 07:37:43;;;;;;;7.30;6.60;;;;;;;;;;5094842;28;20803;-60
2023/04/22 07:40:12;;;;;;;11.50;7.13;;;;;;;;;;5094635;28;20944;-60
2023/04/22 07:42:41;;;;;;;7.50;6.77;;;;;;;;;;5094625;28;20448;-60
2023/04/22 07:45:08;;;;;;;9.00;7.33;;;;;;;;;;5094481;28;20506;-60
2023/04/22 07:47:35;;;;;;;9.43;7.00;;;;;;;;;;5094727;28;20544;-60
2023/04/22 07:50:02;;;;;;;10.43;7.47;;;;;;;;;;5094411;28;20449;-60
2023/04/22 07:52:29;;;;;;;12.40;8.30;;;;;;;;;;5094418;28;20575;-60
2023/04/22 07:54:56;;;;;;;8.67;7.77;;;;;;;;;;5094173;28;20485;-60
2023/04/22 07:57:24;;;;;;;9.63;7.80;;;;;;;;;;5094226;28;20505;-60
2023/04/22 07:59:52;;;;;;;9.60;7.60;;;;;;;;;;5094077;28;20808;-60
2023/04/22 08:02:19;;;;;;;9.37;8.00;;;;;;;;;;5094360;28;20544;-60
2023/04/22 08:04:46;;;;;;;9.00;6.90;;;;;;;;;;5094218;28;20864;-59
2023/04/22 08:07:15;;;;;;;7.43;6.50;;;;;;;;;;5094219;28;20871;-59
2023/04/22 08:09:42;;;;;;;8.90;7.03;;;;;;;;;;5093978;28;20543;-59
2023/04/22 08:12:09;;;;;;;7.53;6.83;;;;;;;;;;5093005;28;20473;-60
2023/04/22 08:14:36;;;;;;;8.33;7.07;;;;;;;;;;5093820;28;20509;-60
2023/04/22 08:17:04;;;;;;;8.03;7.23;;;;;;;;;;5093925;28;20552;-59
2023/04/22 08:19:31;;;;;;;8.20;7.47;;;;;;;;;;5094020;28;20476;-60
2023/04/22 08:21:58;;;;;;;11.57;7.23;;;;;;;;;;5093748;28;20808;-59
2023/04/22 08:24:25;;;;;;;6.80;6.20;;;;;;;;;;5093678;28;20828;-59
2023/04/22 08:26:52;;;;;;;6.60;6.00;;;;;;;;;;5093663;28;20863;-59
2023/04/22 08:29:19;;;;;;;8.03;7.23;;;;;;;;;;5093774;28;20458;-59
2023/04/22 08:31:46;;;;;;;7.67;7.07;;;;;;;;;;5093670;28;20563;-59
2023/04/22 08:34:14;;;;;;;10.70;7.63;;;;;;;;;;5093782;28;20541;-59
2023/04/22 08:36:41;;;;;;;7.27;6.60;;;;;;;;;;5093654;28;20536;-59
2023/04/22 08:39:09;;;;;;;7.97;7.30;;;;;;;;;;5093707;28;20957;-60
2023/04/22 08:41:36;;;;;;;6.43;5.80;;;;;;;;;;5093544;28;20458;-59
2023/04/22 08:44:03;;;;;;;7.83;6.83;;;;;;;;;;5093869;28;20791;-60
2023/04/22 08:46:31;;;;;;;7.63;6.07;;;;;;;;;;5093448;28;20488;-59
2023/04/22 08:49:02;;;;;;;10.50;5.83;;;;;;;;;;5093463;28;20537;-59
2023/04/22 08:51:32;;;;;;;6.40;5.90;;;;;;;;;;5093328;28;21029;-60
2023/04/22 08:53:59;;;;;;;6.87;6.17;;;;;;;;;;5093114;28;20521;-60
2023/04/22 08:56:27;;;;;;;7.00;6.40;;;;;;;;;;5093488;28;20447;-60
2023/04/22 08:58:55;;;;;;;7.40;6.70;;;;;;;;;;5093385;28;20449;-59
2023/04/22 09:01:23;;;;;;;15.73;7.10;;;;;;;;;;5093270;28;20851;-60
2023/04/22 09:03:50;;;;;;;8.17;7.20;;;;;;;;;;5093075;28;20449;-59
2023/04/22 09:06:17;;;;;;;7.20;6.60;;;;;;;;;;5093012;28;20459;-59
2023/04/22 09:08:46;;;;;;;9.93;6.90;;;;;;;;;;5092995;28;20947;-59
2023/04/22 09:11:13;;;;;;;6.17;5.67;;;;;;;;;;5093018;28;20468;-60
2023/04/22 09:13:40;;;;;;;6.57;5.90;;;;;;;;;;5093097;28;20482;-60
2023/04/22 09:16:07;;;;;;;6.63;6.00;;;;;;;;;;5092990;28;20454;-60
2023/04/22 09:18:40;;;;;;;8.20;6.20;;;;;;;;;;5092861;28;20450;-60
2023/04/22 09:21:07;;;;;;;6.90;6.30;;;;;;;;;;5092738;28;20447;-60
2023/04/22 09:23:34;;;;;;;6.30;5.70;;;;;;;;;;5092830;28;20487;-60
2023/04/22 09:26:02;;;;;;;6.73;6.03;;;;;;;;;;5092903;28;20481;-60
2023/04/22 09:28:29;;;;;;;5.60;5.00;;;;;;;;;;5092914;28;20447;-60
2023/04/22 09:31:00;;;;;;;5.60;4.93;;;;;;;;;;5092848;28;20592;-60
2023/04/22 09:33:27;;;;;;;5.93;5.17;;;;;;;;;;5092666;28;20479;-60
2023/04/22 09:35:56;;;;;;;5.67;5.17;;;;;;;;;;5092893;28;20542;-60
2023/04/22 09:38:23;;;;;;;7.07;6.33;;;;;;;;;;5092811;28;20795;-60
2023/04/22 09:40:50;;;;;;;7.03;6.03;;;;;;;;;;5092784;28;20449;-60
2023/04/22 09:43:19;;;;;;;5.30;4.80;;;;;;;;;;5092745;28;20457;-60
2023/04/22 09:45:46;;;;;;;6.30;5.80;;;;;;;;;;5092614;28;20764;-60
2023/04/22 09:48:14;;;;;;;6.40;5.23;;;;;;;;;;5092445;28;20454;-60
2023/04/22 09:50:43;;;;;;;5.80;5.30;;;;;;;;;;5092644;28;20457;-61
2023/04/22 09:53:11;;;;;;;9.03;6.03;;;;;;;;;;5092379;28;20482;-60
2023/04/22 09:55:41;;;;;;;5.83;5.30;;;;;;;;;;5092543;28;20485;-60
2023/04/22 09:58:08;;;;;;;5.73;5.13;;;;;;;;;;5092487;28;20443;-60
2023/04/22 10:00:38;;;;;;;9.53;6.30;;;;;;;;;;5092293;28;20525;-60
2023/04/22 10:03:06;;;;;;;10.70;6.00;;;;;;;;;;5092473;28;20457;-60
2023/04/22 10:05:36;;;;;;;6.67;5.43;;;;;;;;;;5092202;28;20960;-60
2023/04/22 10:08:03;;;;;;;10.70;5.67;;;;;;;;;;5092449;28;20450;-60
2023/04/22 10:10:30;;;;;;;7.10;6.50;;;;;;;;;;5092324;28;20557;-60
2023/04/22 10:12:57;;;;;;;6.20;5.60;;;;;;;;;;5092050;28;20535;-60
2023/04/22 10:15:26;;;;;;;5.57;5.03;;;;;;;;;;5092276;28;20493;-60
2023/04/22 10:17:55;;;;;;;9.90;5.73;;;;;;;;;;5092148;28;20954;-60
2023/04/22 10:20:23;;;;;;;6.33;5.50;;;;;;;;;;5092389;28;20489;-60
2023/04/22 10:22:52;;;;;;;7.13;5.43;;;;;;;;;;5092243;28;20458;-60
2023/04/22 10:25:22;;;;;;;12.40;5.60;;;;;;;;;;5092057;28;20451;-61
2023/04/22 10:27:53;;;;;;;5.57;5.07;;;;;;;;;;5092369;28;20462;-60
2023/04/22 10:30:27;;;;;;;5.23;4.83;;;;;;;;;;5092039;28;20482;-60
2023/04/22 10:32:55;;;;;;;6.93;5.20;;;;;;;;;;5091967;28;20483;-60
2023/04/22 10:35:27;;;;;;;14.70;6.10;;;;;;;;;;5093487;28;20481;-60
2023/04/22 10:37:54;;;;;;;7.67;7.07;;;;;;;;;;5095851;28;20512;-60
2023/04/22 10:40:22;;;;;;;8.80;8.03;;;;;;;;;;5096022;28;20451;-61
2023/04/22 10:42:50;;;;;;;6.60;6.00;;;;;;;;;;5095868;28;20812;-61
2023/04/22 10:45:17;;;;;;;9.80;7.23;;;;;;;;;;5095797;28;20446;-60
2023/04/22 10:47:45;;;;;;;6.37;5.87;;;;;;;;;;5095656;28;20884;-60
2023/04/22 10:50:14;;;;;;;6.93;5.73;;;;;;;;;;5095588;28;20537;-60
2023/04/22 10:52:42;;;;;;;6.93;5.13;;;;;;;;;;5095346;28;20850;-61
2023/04/22 10:55:09;;;;;;;5.40;5.00;;;;;;;;;;5095319;28;20470;-61
2023/04/22 10:57:40;;;;;;;9.37;5.67;;;;;;;;;;5095636;28;20922;-60
2023/04/22 11:00:24;;;;;;;5.07;4.60;;;;;;;;;;5095469;28;20450;-60
2023/04/22 11:02:55;;;;;;;7.70;5.00;;;;;;;;;;5095285;28;20554;-61
2023/04/22 11:05:25;;;;;;;4.50;4.20;;;;;;;;;;5095203;28;20443;-61
2023/04/22 11:07:53;;;;;;;5.10;4.60;;;;;;;;;;5095347;28;20542;-61
2023/04/22 11:10:39;;;;;;;5.87;5.37;;;;;;;;;;5095144;28;20442;-61
2023/04/22 11:13:06;;;;;;;5.13;4.63;;;;;;;;;;5095385;28;21041;-61
2023/04/22 11:15:35;;;;;;;7.40;6.27;;;;;;;;;;5095041;28;20451;-61
2023/04/22 11:18:02;;;;;;;8.43;6.13;;;;;;;;;;5095319;28;20543;-60
2023/04/22 11:20:30;;;;;;;5.33;4.93;;;;;;;;;;5095124;28;20814;-60
2023/04/22 11:22:58;;;;;;;6.00;5.50;;;;;;;;;;5095150;28;20459;-60
2023/04/22 11:25:26;;;;;;;6.83;5.93;;;;;;;;;;5095055;28;20457;-60
2023/04/22 11:27:54;;;;;;;7.50;5.47;;;;;;;;;;5094887;28;20485;-61
2023/04/22 11:30:21;;;;;;;6.43;5.70;;;;;;;;;;5095027;28;20447;-61
2023/04/22 11:32:49;;;;;;;5.37;4.97;;;;;;;;;;5094905;28;20640;-61
2023/04/22 11:35:18;;;;;;;7.10;4.67;;;;;;;;;;5094753;28;20508;-60
2023/04/22 11:37:47;;;;;;;5.60;5.20;;;;;;;;;;5094855;28;20443;-60
2023/04/22 11:40:16;;;;;;;5.73;5.33;;;;;;;;;;5094672;28;20446;-61
2023/04/22 11:42:43;;;;;;;7.90;5.23;;;;;;;;;;5094609;28;20504;-61
2023/04/22 11:45:10;;;;;;;5.50;5.10;;;;;;;;;;5094831;28;20443;-60
2023/04/22 11:47:37;;;;;;;6.20;4.83;;;;;;;;;;5093410;28;20443;-61
2023/04/22 11:50:08;;;;;;;6.27;5.40;;;;;;;;;;5094701;28;20446;-61
2023/04/22 11:52:50;;;;;;;6.43;5.83;;;;;;;;;;5094451;28;20487;-61
2023/04/22 11:55:17;;;;;;;6.13;5.33;;;;;;;;;;5094269;28;20475;-60
2023/04/22 11:57:46;;;;;;;5.97;4.70;;;;;;;;;;5094530;28;20489;-61
2023/04/22 12:00:16;;;;;;;5.17;4.67;;;;;;;;;;5094481;28;20447;-61
2023/04/22 12:02:44;;;;;;;5.90;5.30;;;;;;;;;;5094321;28;20455;-61
2023/04/22 12:05:12;;;;;;;5.90;4.70;;;;;;;;;;5094172;28;20453;-60
2023/04/22 12:07:39;;;;;;;8.27;4.80;;;;;;;;;;5094094;28;20459;-60
2023/04/22 12:10:08;;;;;;;5.37;4.87;;;;;;;;;;5094212;28;20493;-61
2023/04/22 12:12:36;;;;;;;6.30;4.37;;;;;;;;;;5094088;28;20479;-61
2023/04/22 12:15:10;;;;;;;5.60;5.07;;;;;;;;;;5094041;28;20455;-60
2023/04/22 12:17:37;;;;;;;8.57;5.67;;;;;;;;;;5093901;28;20536;-61
2023/04/22 12:20:05;;;;;;;5.43;4.93;;;;;;;;;;5093723;28;20474;-61
2023/04/22 12:22:33;;;;;;;6.13;4.50;;;;;;;;;;5093981;28;20534;-61
2023/04/22 12:25:00;;;;;;;5.30;4.53;;;;;;;;;;5093942;28;20454;-60
2023/04/22 12:27:30;;;;;;;5.90;5.40;;;;;;;;;;5093728;28;20909;-61
2023/04/22 12:29:57;;;;;;;5.30;4.90;;;;;;;;;;5093594;28;20965;-60
2023/04/22 12:32:25;;;;;;;8.60;6.03;;;;;;;;;;5093387;28;20518;-60
2023/04/22 12:34:52;;;;;;;5.60;5.10;;;;;;;;;;5093393;28;20552;-61
2023/04/22 12:37:19;;;;;;;5.77;5.23;;;;;;;;;;5093703;28;20492;-61
2023/04/22 12:39:46;;;;;;;5.80;4.47;;;;;;;;;;5093670;28;20534;-60
2023/04/22 12:42:13;;;;;;;5.20;4.73;;;;;;;;;;5093537;28;20494;-61
2023/04/22 12:44:42;;;;;;;5.13;4.73;;;;;;;;;;5093422;28;20447;-61
2023/04/22 12:47:09;;;;;;;5.00;4.60;;;;;;;;;;5093323;28;20526;-61
2023/04/22 12:49:38;;;;;;;4.87;4.43;;;;;;;;;;5093307;28;20966;-61
2023/04/22 12:52:04;;;;;;;4.40;4.10;;;;;;;;;;5093258;28;20451;-61
2023/04/22 12:54:31;;;;;;;5.13;4.80;;;;;;;;;;5092939;28;20497;-61
2023/04/22 12:56:58;;;;;;;4.90;4.60;;;;;;;;;;5093276;28;20450;-61
2023/04/22 12:59:25;;;;;;;6.13;5.63;;;;;;;;;;5092801;28;20934;-61
2023/04/22 13:01:54;;;;;;;5.87;4.60;;;;;;;;;;5093021;28;20446;-61
2023/04/22 13:04:21;;;;;;;5.27;4.87;;;;;;;;;;5093039;28;20952;-61
2023/04/22 13:06:54;;;;;;;5.57;5.07;;;;;;;;;;5093259;28;20534;-61
2023/04/22 13:09:21;;;;;;;5.43;5.07;;;;;;;;;;5093114;28;20458;-61
2023/04/22 13:11:48;;;;;;;5.57;4.73;;;;;;;;;;5093086;28;20831;-61
2023/04/22 13:14:16;;;;;;;6.13;5.37;;;;;;;;;;5092877;28;20478;-61
2023/04/22 13:16:42;;;;;;;4.70;4.30;;;;;;;;;;5093156;28;20449;-61
2023/04/22 13:19:11;;;;;;;5.30;4.83;;;;;;;;;;5093066;28;20447;-61
2023/04/22 13:21:38;;;;;;;4.97;4.67;;;;;;;;;;5092901;28;20546;-61
2023/04/22 13:24:05;;;;;;;5.30;4.70;;;;;;;;;;5092811;28;20478;-61
2023/04/22 13:26:32;;;;;;;7.60;4.93;;;;;;;;;;5092826;28;21021;-61
2023/04/22 13:28:59;;;;;;;5.70;5.20;;;;;;;;;;5092664;28;20938;-61
2023/04/22 13:31:26;;;;;;;6.40;4.70;;;;;;;;;;5092907;28;20537;-61
2023/04/22 13:33:54;;;;;;;4.83;4.53;;;;;;;;;;5092834;28;20639;-61
2023/04/22 13:36:22;;;;;;;4.97;4.57;;;;;;;;;;5092719;28;20458;-61
2023/04/22 13:38:50;;;;;;;6.13;5.60;;;;;;;;;;5092705;28;20443;-62
2023/04/22 13:41:16;;;;;;;5.90;5.40;;;;;;;;;;5092644;28;20513;-61
2023/04/22 13:43:43;;;;;;;5.80;5.00;;;;;;;;;;5092682;28;20542;-61
2023/04/22 13:46:11;;;;;;;7.93;5.37;;;;;;;;;;5092788;28;20455;-62
2023/04/22 13:48:38;;;;;;;6.00;5.40;;;;;;;;;;5092464;28;20446;-61
2023/04/22 13:51:05;;;;;;;6.10;5.30;;;;;;;;;;5092721;28;20477;-62
2023/04/22 13:53:33;;;;;;;5.47;4.97;;;;;;;;;;5092386;28;20489;-61
2023/04/22 13:56:00;;;;;;;5.00;4.60;;;;;;;;;;5092377;28;20879;-62
2023/04/22 13:58:27;;;;;;;5.37;4.97;;;;;;;;;;5092306;28;20451;-61
2023/04/22 14:00:54;;;;;;;7.13;5.30;;;;;;;;;;5092665;28;20542;-61
2023/04/22 14:03:21;;;;;;;5.57;5.17;;;;;;;;;;5092502;28;20840;-61
2023/04/22 14:05:48;;;;;;;5.63;5.13;;;;;;;;;;5092366;28;20447;-61
2023/04/22 14:08:15;;;;;;;6.00;4.73;;;;;;;;;;5092494;28;20530;-62
2023/04/22 14:10:43;;;;;;;5.17;4.77;;;;;;;;;;5094342;28;20478;-62
2023/04/22 14:13:10;;;;;;;6.60;4.63;;;;;;;;;;5096559;28;20880;-61
2023/04/22 14:15:38;;;;;;;7.40;4.60;;;;;;;;;;5096437;28;20483;-61
2023/04/22 14:18:05;;;;;;;5.50;4.93;;;;;;;;;;5096342;28;20448;-61
2023/04/22 14:20:32;;;;;;;5.03;4.60;;;;;;;;;;5096389;28;20537;-62
2023/04/22 14:23:00;;;;;;;6.90;4.37;;;;;;;;;;5096342;28;20447;-61
2023/04/22 14:25:27;;;;;;;6.27;5.00;;;;;;;;;;5096366;28;20445;-61
2023/04/22 14:27:55;;;;;;;4.53;4.13;;;;;;;;;;5096247;28;20443;-61
2023/04/22 14:30:22;;;;;;;6.13;4.20;;;;;;;;;;5096280;28;20545;-61
2023/04/22 14:32:49;;;;;;;4.60;4.30;;;;;;;;;;5096062;28;20447;-61
2023/04/22 14:35:16;;;;;;;5.53;4.63;;;;;;;;;;5095867;28;20985;-61
2023/04/22 14:37:43;;;;;;;5.00;4.60;;;;;;;;;;5096000;28;20537;-61
2023/04/22 14:40:11;;;;;;;5.07;4.50;;;;;;;;;;5096110;28;20454;-62
2023/04/22 14:42:39;;;;;;;5.90;5.30;;;;;;;;;;5095769;28;20447;-61